Time;durP1;ratioP1;P1;durP2;ratioP2;P2;SDS_P1;SDS_P2;PMS_P1;PMS_P2;Temp;Humidity;BMP_temperature;BMP_pressure;BME280_temperature;BME280_humidity;BME280_pressure;Samples;Min_cycle;Max_cycle;Signal;HPM_P1;HPM_P2
2023/08/30 00:00:11;;;;;;;2.45;0.70;;;;;;;14.33;100.00;93468.63;4922955;29;20042;-85
2023/08/30 00:02:37;;;;;;;6.25;0.52;;;;;;;14.40;100.00;93476.84;4923147;29;20050;-84
2023/08/30 00:05:03;;;;;;;2.72;0.80;;;;;;;14.41;100.00;93473.13;4940195;29;20031;-84
2023/08/30 00:07:29;;;;;;;4.60;0.85;;;;;;;14.47;100.00;93471.84;4922999;29;20062;-85
2023/08/30 00:09:55;;;;;;;1.15;0.55;;;;;;;14.49;100.00;93471.56;4922729;29;20419;-84
2023/08/30 00:12:21;;;;;;;1.20;0.50;;;;;;;14.26;100.00;93484.91;4923078;29;20032;-85
2023/08/30 00:14:47;;;;;;;1.17;0.70;;;;;;;14.21;100.00;93474.53;4939657;29;20027;-85
2023/08/30 00:17:12;;;;;;;0.82;0.50;;;;;;;14.34;100.00;93464.91;4922903;29;20028;-85
2023/08/30 00:19:38;;;;;;;3.35;0.77;;;;;;;14.28;100.00;93469.59;4922697;29;20141;-85
2023/08/30 00:22:03;;;;;;;6.47;0.80;;;;;;;14.35;100.00;93472.50;4922537;29;20042;-84
2023/08/30 00:24:28;;;;;;;1.80;0.52;;;;;;;14.35;100.00;93469.13;4922918;29;20430;-84
2023/08/30 00:26:54;;;;;;;2.17;0.68;;;;;;;14.35;100.00;93467.25;4922785;29;20039;-84
2023/08/30 00:29:19;;;;;;;2.03;0.55;;;;;;;14.25;100.00;93464.91;4922901;29;20036;-84
2023/08/30 00:31:45;;;;;;;1.77;0.63;;;;;;;14.30;100.00;93466.63;4939000;29;20042;-84
2023/08/30 00:34:10;;;;;;;2.97;1.05;;;;;;;14.18;100.00;93473.28;4922371;29;20086;-84
2023/08/30 00:36:35;;;;;;;3.60;0.73;;;;;;;14.25;100.00;93468.34;4922749;29;20043;-85
2023/08/30 00:39:02;;;;;;;2.25;0.50;;;;;;;14.20;100.00;93471.16;4922516;29;20044;-84
2023/08/30 00:41:27;;;;;;;1.17;0.60;;;;;;;14.19;100.00;93477.47;4939687;29;20335;-84
2023/08/30 00:43:53;;;;;;;2.90;0.60;;;;;;;14.09;100.00;93475.94;4939687;29;20046;-84
2023/08/30 00:46:18;;;;;;;1.10;0.68;;;;;;;13.84;100.00;93478.28;4939009;29;20028;-84
2023/08/30 00:48:44;;;;;;;4.70;0.70;;;;;;;13.97;100.00;93479.22;4906636;29;20038;-85
2023/08/30 00:51:09;;;;;;;1.88;0.55;;;;;;;14.03;100.00;93477.19;4922591;29;20106;-84
2023/08/30 00:53:35;;;;;;;0.80;0.50;;;;;;;14.04;100.00;93473.47;4939479;29;20043;-84
2023/08/30 00:56:01;;;;;;;4.95;0.75;;;;;;;13.84;100.00;93477.50;4922514;29;20437;-84
2023/08/30 00:58:26;;;;;;;2.55;0.70;;;;;;;13.89;100.00;93477.34;4930479;29;20453;-84
2023/08/30 01:00:52;;;;;;;4.05;0.63;;;;;;;14.00;100.00;93486.47;4958386;29;20038;-84
2023/08/30 01:03:20;;;;;;;0.98;0.60;;;;;;;14.23;100.00;93481.06;4958379;29;20035;-85
2023/08/30 01:05:45;;;;;;;4.32;0.70;;;;;;;14.21;100.00;93483.22;4958549;29;20101;-84
2023/08/30 01:08:11;;;;;;;3.05;0.77;;;;;;;13.90;100.00;93484.16;4941056;29;20445;-84
2023/08/30 01:10:47;;;;;;;5.13;0.88;;;;;;;13.54;100.00;93485.97;4941183;29;20049;-85
2023/08/30 01:13:16;;;;;;;2.88;0.60;;;;;;;14.03;100.00;93485.09;4941476;29;20113;-85
2023/08/30 01:15:42;;;;;;;1.55;0.70;;;;;;;14.10;100.00;93487.25;4941039;29;20035;-85
2023/08/30 01:18:09;;;;;;;3.20;0.70;;;;;;;13.95;100.00;93481.38;4940745;29;20071;-85
2023/08/30 01:20:37;;;;;;;2.55;0.70;;;;;;;13.96;100.00;93487.41;4941517;29;20043;-84
2023/08/30 01:23:05;;;;;;;2.40;0.60;;;;;;;13.99;100.00;93487.56;4941022;29;20528;-84
2023/08/30 01:26:02;;;;;;;5.15;0.70;;;;;;;14.00;100.00;93483.84;4925421;29;20031;-84
2023/08/30 01:28:30;;;;;;;8.70;1.35;;;;;;;13.93;100.00;93482.75;4958323;29;20043;-85
2023/08/30 01:30:57;;;;;;;3.67;0.93;;;;;;;14.00;100.00;93480.44;4940923;29;20047;-85
2023/08/30 01:33:23;;;;;;;3.90;0.75;;;;;;;14.00;100.00;93477.81;4925515;29;20027;-84
2023/08/30 01:35:48;;;;;;;2.30;0.70;;;;;;;13.98;100.00;93486.03;4941176;29;20031;-85
2023/08/30 01:38:14;;;;;;;1.42;0.63;;;;;;;13.88;100.00;93486.31;4941121;29;20042;-85
2023/08/30 01:40:42;;;;;;;2.63;0.70;;;;;;;13.79;100.00;93478.41;4958143;29;20066;-85
2023/08/30 01:43:09;;;;;;;4.13;0.75;;;;;;;13.32;100.00;93486.81;4941499;28;20344;-85
2023/08/30 01:45:35;;;;;;;5.45;0.80;;;;;;;13.43;100.00;93493.38;4944719;29;20027;-85
2023/08/30 01:48:01;;;;;;;0.60;0.55;;;;;;;13.65;100.00;93480.41;4944571;29;20087;-85
2023/08/30 01:50:27;;;;;;;2.10;0.73;;;;;;;13.65;100.00;93481.19;4944207;29;20130;-85
2023/08/30 01:52:53;;;;;;;5.45;0.82;;;;;;;13.84;100.00;93480.13;4944343;29;20027;-84
2023/08/30 01:55:20;;;;;;;0.93;0.57;;;;;;;13.48;100.00;93484.56;4944468;29;20346;-84
2023/08/30 01:57:46;;;;;;;3.05;0.73;;;;;;;13.79;100.00;93486.31;4943996;29;20043;-84
2023/08/30 02:00:12;;;;;;;4.18;0.60;;;;;;;13.92;100.00;93484.63;4961612;29;20038;-84
2023/08/30 02:02:37;;;;;;;2.70;0.60;;;;;;;13.94;100.00;93479.84;4944683;29;20034;-84
2023/08/30 02:05:03;;;;;;;3.13;0.70;;;;;;;13.69;100.00;93476.88;4961478;29;20031;-84
2023/08/30 02:07:36;;;;;;;1.75;0.70;;;;;;;13.94;100.00;93485.09;4926778;29;20138;-84
2023/08/30 02:10:15;;;;;;;1.95;0.70;;;;;;;14.16;100.00;93474.72;4925054;29;20036;-84
2023/08/30 02:12:47;;;;;;;3.22;0.60;;;;;;;14.25;100.00;93476.25;4925246;29;20036;-85
2023/08/30 02:15:13;;;;;;;1.90;0.70;;;;;;;13.80;100.00;93472.06;4924769;29;20039;-85
2023/08/30 02:17:39;;;;;;;4.28;0.80;;;;;;;13.57;100.00;93461.69;4924954;29;20046;-85
2023/08/30 02:20:06;;;;;;;2.25;0.70;;;;;;;13.68;100.00;93462.16;4924815;29;20031;-85
2023/08/30 02:22:31;;;;;;;2.40;0.70;;;;;;;14.00;100.00;93473.31;4908916;29;20331;-85
2023/08/30 02:24:57;;;;;;;2.67;0.57;;;;;;;13.82;100.00;93462.00;4941995;29;20042;-84
2023/08/30 02:27:23;;;;;;;1.70;0.73;;;;;;;13.70;100.00;93465.25;4924873;29;20469;-85
2023/08/30 02:29:48;;;;;;;2.55;0.77;;;;;;;13.56;100.00;93467.25;4960206;29;20074;-84
2023/08/30 02:32:15;;;;;;;2.55;0.65;;;;;;;13.55;100.00;93470.97;4943867;29;20038;-84
2023/08/30 02:34:40;;;;;;;1.48;0.57;;;;;;;13.61;100.00;93471.59;4943905;29;20039;-84
2023/08/30 02:37:05;;;;;;;0.98;0.63;;;;;;;13.50;100.00;93479.00;4960840;29;20043;-84
2023/08/30 02:39:31;;;;;;;5.25;0.80;;;;;;;13.86;100.00;93475.31;4960711;29;20126;-84
2023/08/30 02:41:56;;;;;;;1.88;0.60;;;;;;;13.43;100.00;93471.53;4960876;29;20034;-84
2023/08/30 02:44:21;;;;;;;2.60;0.70;;;;;;;13.23;100.00;93472.88;4960483;29;20166;-85
2023/08/30 02:46:47;;;;;;;2.97;0.70;;;;;;;13.08;100.00;93474.06;4960302;29;20039;-85
2023/08/30 02:49:12;;;;;;;1.90;0.50;;;;;;;13.18;100.00;93475.63;4960554;29;20035;-85
2023/08/30 02:51:38;;;;;;;2.03;0.70;;;;;;;13.00;100.00;93470.34;4943319;29;20094;-84
2023/08/30 02:54:03;;;;;;;3.30;0.68;;;;;;;13.03;100.00;93464.47;4943500;29;20031;-85
2023/08/30 02:56:29;;;;;;;2.92;0.90;;;;;;;13.41;100.00;93463.94;4942683;29;20083;-85
2023/08/30 02:58:54;;;;;;;1.98;0.80;;;;;;;13.65;100.00;93468.03;4960379;29;20041;-84
2023/08/30 03:01:19;;;;;;;0.80;0.60;;;;;;;13.70;100.00;93469.72;4943045;29;20035;-84
2023/08/30 03:03:48;;;;;;;3.97;0.80;;;;;;;13.19;100.00;93477.19;4943033;29;20071;-85
2023/08/30 03:06:14;;;;;;;3.30;0.80;;;;;;;13.21;100.00;93485.56;4942982;29;20086;-85
2023/08/30 03:08:39;;;;;;;1.65;0.68;;;;;;;13.43;100.00;93484.69;4959798;29;20028;-84
2023/08/30 03:11:12;;;;;;;3.85;0.70;;;;;;;13.18;100.00;93481.69;4943194;29;20035;-84
2023/08/30 03:13:38;;;;;;;1.70;0.80;;;;;;;13.41;100.00;93485.00;4943137;29;20089;-84
2023/08/30 03:16:13;;;;;;;1.80;0.80;;;;;;;13.68;100.00;93483.22;4943048;29;20310;-84
2023/08/30 03:18:39;;;;;;;0.77;0.50;;;;;;;13.93;100.00;93486.19;4942749;29;20031;-84
2023/08/30 03:21:04;;;;;;;0.85;0.50;;;;;;;13.99;100.00;93477.03;4942906;29;20101;-84
2023/08/30 03:23:31;;;;;;;1.98;0.70;;;;;;;13.98;100.00;93479.97;4922647;29;20027;-84
2023/08/30 03:25:58;;;;;;;1.40;0.65;;;;;;;14.07;100.00;93472.84;4942813;29;20041;-84
2023/08/30 03:28:23;;;;;;;8.13;0.70;;;;;;;14.05;100.00;93476.88;4942464;29;20082;-84
2023/08/30 03:30:48;;;;;;;1.60;0.70;;;;;;;14.10;100.00;93471.47;4942532;29;20393;-84
2023/08/30 03:33:14;;;;;;;4.75;0.88;;;;;;;13.29;100.00;93467.19;4942752;29;20041;-84
2023/08/30 03:35:39;;;;;;;4.07;0.88;;;;;;;12.97;100.00;93470.94;4942586;29;20039;-84
2023/08/30 03:38:05;;;;;;;4.93;0.80;;;;;;;13.11;100.00;93471.63;4942524;29;20330;-84
2023/08/30 03:40:30;;;;;;;4.68;1.30;;;;;;;13.13;100.00;93471.31;4942565;29;20043;-84
2023/08/30 03:42:56;;;;;;;4.55;0.68;;;;;;;13.57;100.00;93460.91;4942232;29;20464;-85
2023/08/30 03:45:22;;;;;;;1.10;0.68;;;;;;;13.36;100.00;93472.00;4942492;29;20035;-84
2023/08/30 03:47:47;;;;;;;2.97;0.70;;;;;;;13.44;100.00;93467.84;4959263;29;20046;-84
2023/08/30 03:50:13;;;;;;;0.82;0.52;;;;;;;13.67;100.00;93455.34;4925166;29;20036;-84
2023/08/30 03:52:38;;;;;;;1.20;0.80;;;;;;;13.57;100.00;93450.38;4957862;29;20037;-85
2023/08/30 03:55:04;;;;;;;2.55;0.70;;;;;;;13.58;100.00;93449.28;4942417;29;20353;-84
2023/08/30 03:57:29;;;;;;;2.50;0.60;;;;;;;13.64;100.00;93455.97;4941852;29;20035;-84
2023/08/30 03:59:55;;;;;;;1.40;0.50;;;;;;;13.82;100.00;93461.25;4942327;29;20039;-84
2023/08/30 04:02:20;;;;;;;2.88;0.90;;;;;;;13.76;100.00;93451.94;4942332;29;20041;-84
2023/08/30 04:04:49;;;;;;;1.75;0.57;;;;;;;13.69;100.00;93453.19;4959066;29;20325;-84
2023/08/30 04:07:15;;;;;;;2.70;0.80;;;;;;;13.64;100.00;93452.56;4957707;28;20110;-84
2023/08/30 04:09:40;;;;;;;3.58;0.85;;;;;;;13.38;100.00;93463.78;4958037;29;20066;-84
2023/08/30 04:12:06;;;;;;;1.73;0.70;;;;;;;13.17;100.00;93466.19;4958910;29;20041;-84
2023/08/30 04:14:31;;;;;;;0.70;0.60;;;;;;;13.36;100.00;93477.25;4959386;29;20047;-84
2023/08/30 04:16:57;;;;;;;2.92;0.70;;;;;;;13.31;100.00;93474.75;4959059;29;20041;-84
2023/08/30 04:19:22;;;;;;;6.75;0.70;;;;;;;13.26;100.00;93480.16;4959141;29;20035;-84
2023/08/30 04:21:47;;;;;;;5.43;0.90;;;;;;;13.52;100.00;93487.38;4958754;29;20493;-84
2023/08/30 04:24:14;;;;;;;2.55;0.85;;;;;;;13.80;100.00;93485.22;4941664;29;20039;-84
2023/08/30 04:26:40;;;;;;;6.80;1.00;;;;;;;13.90;100.00;93491.28;4957624;29;20027;-84
2023/08/30 04:29:06;;;;;;;1.92;0.63;;;;;;;13.94;100.00;93489.56;4957781;29;20070;-84
2023/08/30 04:31:31;;;;;;;1.10;0.60;;;;;;;13.95;100.00;93491.13;4941456;29;20075;-84
2023/08/30 04:33:56;;;;;;;0.95;0.60;;;;;;;14.08;100.00;93484.16;4941758;29;20039;-84
2023/08/30 04:36:22;;;;;;;1.10;0.65;;;;;;;14.10;100.00;93489.91;4940964;29;20035;-84
2023/08/30 04:38:48;;;;;;;2.25;0.60;;;;;;;13.88;100.00;93480.28;4941694;29;20035;-84
2023/08/30 04:41:13;;;;;;;1.65;0.88;;;;;;;13.41;100.00;93490.25;4941550;29;20054;-84
2023/08/30 04:43:38;;;;;;;3.03;0.82;;;;;;;13.49;100.00;93488.00;4941684;29;20086;-84
2023/08/30 04:46:04;;;;;;;0.73;0.50;;;;;;;13.82;100.00;93479.66;4958771;29;20062;-84
2023/08/30 04:48:29;;;;;;;6.85;0.65;;;;;;;13.52;100.00;93490.00;4958696;29;20396;-84
2023/08/30 04:51:04;;;;;;;3.70;0.68;;;;;;;13.78;100.00;93476.88;4941577;29;20035;-84
2023/08/30 04:53:30;;;;;;;2.80;0.73;;;;;;;13.78;100.00;93478.75;4942088;29;20038;-84
2023/08/30 04:55:59;;;;;;;3.15;0.70;;;;;;;13.85;100.00;93477.19;4941208;29;20035;-84
2023/08/30 04:58:24;;;;;;;5.80;0.73;;;;;;;13.79;100.00;93475.78;4941483;29;20035;-84
2023/08/30 05:00:50;;;;;;;1.95;0.63;;;;;;;13.74;100.00;93468.06;4958692;29;20039;-84
2023/08/30 05:03:15;;;;;;;3.65;0.50;;;;;;;13.79;100.00;93470.53;4925596;29;20035;-84
2023/08/30 05:05:45;;;;;;;1.17;0.50;;;;;;;13.73;100.00;93473.63;4941454;29;20042;-84
2023/08/30 05:08:11;;;;;;;3.13;0.63;;;;;;;13.69;100.00;93481.34;4941088;29;20467;-84
2023/08/30 05:10:36;;;;;;;4.10;0.70;;;;;;;13.50;100.00;93484.28;4958503;29;20035;-84
2023/08/30 05:13:03;;;;;;;4.93;0.85;;;;;;;13.25;100.00;93502.28;4941414;29;20089;-84
2023/08/30 05:15:29;;;;;;;3.47;0.77;;;;;;;13.23;100.00;93499.19;4941558;29;20337;-84
2023/08/30 05:17:54;;;;;;;2.70;0.60;;;;;;;13.43;100.00;93503.13;4958434;28;20039;-84
2023/08/30 05:20:19;;;;;;;2.60;0.82;;;;;;;13.51;100.00;93507.63;4945025;29;20027;-84
2023/08/30 05:22:45;;;;;;;2.47;0.43;;;;;;;13.80;100.00;93514.19;4962315;29;20039;-84
2023/08/30 05:25:10;;;;;;;1.52;0.73;;;;;;;13.87;100.00;93513.72;4928840;29;20073;-88
2023/08/30 05:27:36;;;;;;;0.75;0.40;;;;;;;14.02;100.00;93517.00;4962433;29;20038;-84
2023/08/30 05:30:01;;;;;;;2.75;0.82;;;;;;;14.16;100.00;93514.97;4962065;29;20350;-84
2023/08/30 05:32:27;;;;;;;8.43;0.82;;;;;;;14.04;100.00;93512.19;4954806;29;20123;-84
2023/08/30 05:34:52;;;;;;;5.68;0.65;;;;;;;13.90;100.00;93520.25;4944661;29;20043;-84
2023/08/30 05:37:20;;;;;;;3.65;0.68;;;;;;;13.93;100.00;93509.88;4930651;29;20035;-84
2023/08/30 05:39:46;;;;;;;1.50;0.70;;;;;;;14.47;100.00;93523.81;4961753;29;20050;-85
2023/08/30 05:42:11;;;;;;;5.93;0.85;;;;;;;14.78;100.00;93514.94;4961868;29;20035;-84
2023/08/30 05:44:36;;;;;;;4.22;0.60;;;;;;;14.90;100.00;93516.91;4944445;29;20031;-84
2023/08/30 05:47:02;;;;;;;2.47;0.52;;;;;;;15.08;100.00;93523.69;4944554;29;20106;-84
2023/08/30 05:49:27;;;;;;;6.10;0.70;;;;;;;14.09;100.00;93522.59;4944751;29;20064;-84
2023/08/30 05:51:53;;;;;;;2.85;0.70;;;;;;;13.94;100.00;93519.31;4944227;29;20039;-84
2023/08/30 05:54:18;;;;;;;2.88;0.60;;;;;;;13.91;100.00;93524.44;4944141;29;20440;-85
2023/08/30 05:56:43;;;;;;;2.22;0.60;;;;;;;13.84;100.00;93530.16;4944558;29;20047;-84
2023/08/30 05:59:09;;;;;;;1.92;0.75;;;;;;;13.74;100.00;93530.44;4929721;29;20035;-84
2023/08/30 06:01:35;;;;;;;5.20;0.63;;;;;;;13.85;100.00;93529.06;4925085;29;20031;-84
2023/08/30 06:04:00;;;;;;;1.40;0.65;;;;;;;13.91;100.00;93535.72;4942324;29;20378;-84
2023/08/30 06:06:27;;;;;;;2.55;0.63;;;;;;;14.18;100.00;93541.03;4909333;29;20034;-84
2023/08/30 06:08:52;;;;;;;2.80;0.60;;;;;;;14.31;100.00;93540.09;4941904;29;20027;-84
2023/08/30 06:11:18;;;;;;;6.03;0.80;;;;;;;15.10;100.00;93539.97;4924952;29;20039;-84
2023/08/30 06:13:44;;;;;;;2.75;0.70;;;;;;;15.47;100.00;93549.28;4911004;29;20442;-85
2023/08/30 06:16:09;;;;;;;3.22;0.77;;;;;;;15.40;100.00;93545.28;4960989;29;20035;-85
2023/08/30 06:18:37;;;;;;;0.70;0.50;;;;;;;15.73;100.00;93549.16;4961196;29;20055;-85
2023/08/30 06:21:03;;;;;;;2.47;0.70;;;;;;;15.94;100.00;93557.16;4912950;29;20035;-85
2023/08/30 06:23:29;;;;;;;1.98;0.75;;;;;;;15.95;100.00;93557.91;4961222;29;20412;-85
2023/08/30 06:25:58;;;;;;;1.52;0.70;;;;;;;15.60;100.00;93572.06;4961188;29;20058;-85
2023/08/30 06:28:23;;;;;;;9.25;0.98;;;;;;;14.98;100.00;93567.00;4943905;29;20035;-84
2023/08/30 06:30:49;;;;;;;1.05;0.50;;;;;;;14.75;100.00;93571.69;4942452;29;20035;-84
2023/08/30 06:33:15;;;;;;;1.30;0.52;;;;;;;15.17;100.00;93583.56;4944014;29;20038;-85
2023/08/30 06:35:41;;;;;;;4.05;0.65;;;;;;;15.24;100.00;93579.34;4960618;29;20042;-84
2023/08/30 06:38:06;;;;;;;5.10;0.70;;;;;;;15.29;100.00;93585.56;4943633;29;20357;-84
2023/08/30 06:40:32;;;;;;;2.75;0.90;;;;;;;15.29;100.00;93582.91;4943657;29;20039;-84
2023/08/30 06:42:59;;;;;;;4.03;0.60;;;;;;;15.71;100.00;93579.63;4943550;29;20118;-84
2023/08/30 06:45:24;;;;;;;0.95;0.70;;;;;;;16.14;100.00;93580.47;4960107;29;20033;-84
2023/08/30 06:47:50;;;;;;;2.38;0.73;;;;;;;15.90;100.00;93573.97;4960552;29;20130;-84
2023/08/30 06:50:15;;;;;;;2.17;0.70;;;;;;;16.42;100.00;93574.69;4943545;29;20057;-84
2023/08/30 06:52:41;;;;;;;0.93;0.50;;;;;;;16.02;100.00;93579.31;4943615;29;20058;-84
2023/08/30 06:55:07;;;;;;;1.92;0.47;;;;;;;15.94;100.00;93575.66;4960553;29;20039;-84
2023/08/30 06:57:32;;;;;;;2.67;0.52;;;;;;;16.32;100.00;93578.50;4943289;29;20035;-84
2023/08/30 06:59:59;;;;;;;3.90;0.50;;;;;;;16.57;100.00;93581.25;4943190;29;20046;-85
2023/08/30 07:02:25;;;;;;;3.85;0.68;;;;;;;16.49;100.00;93586.28;4959089;29;20035;-85
2023/08/30 07:04:53;;;;;;;1.65;0.60;;;;;;;15.93;100.00;93584.66;4927160;29;20045;-84
2023/08/30 07:07:37;;;;;;;;;;;;;;;;;;;;;
2023/08/30 07:10:10;;;;;;;;;;;;;;;17.82;100.00;93596.31;4954577;29;20037;-84
2023/08/30 07:12:49;;;;;;;;;;;;;;;;;;;;;
2023/08/30 07:15:34;;;;;;;;;;;;;;;;;;;;;
2023/08/30 07:18:05;;;;;;;1.92;0.50;;;;;;;18.31;100.00;93590.22;4943345;29;20035;-85
2023/08/30 07:20:43;;;;;;;;;;;;;;;;;;;;;
2023/08/30 07:23:38;;;;;;;2.25;0.57;;;;;;;18.60;100.00;93598.97;4937588;29;20029;-85
2023/08/30 07:26:29;;;;;;;1.45;0.60;;;;;;;18.80;100.00;93596.47;4916835;29;20066;-85
2023/08/30 07:29:48;;;;;;;;;;;;;;;;;;;;;
2023/08/30 07:32:43;;;;;;;;;;;;;;;;;;;;;
2023/08/30 07:38:44;;;;;;;4.82;0.93;;;;;;;18.69;100.00;93604.13;4937221;29;20039;-85
2023/08/30 07:41:20;;;;;;;;;;;;;;;;;;;;;
2023/08/30 07:46:44;;;;;;;2.33;0.70;;;;;;;18.86;100.00;93612.91;4955479;29;20374;-85
2023/08/30 07:49:30;;;;;;;3.20;0.63;;;;;;;19.46;100.00;93609.53;4941412;29;20493;-84
2023/08/30 07:52:15;;;;;;;1.40;0.60;;;;;;;18.65;100.00;93616.53;4941394;29;20035;-85
2023/08/30 07:55:01;;;;;;;4.78;0.40;;;;;;;18.92;100.00;93614.19;4920513;29;20082;-85
2023/08/30 07:57:30;;;;;;;3.00;0.40;;;;;;;19.10;100.00;93609.41;4941108;29;20043;-86
2023/08/30 08:03:14;;;;;;;1.38;0.50;;;;;;;18.94;100.00;93612.75;4914989;29;20046;-86
2023/08/30 08:06:09;;;;;;;1.65;0.50;;;;;;;18.82;100.00;93617.38;4922560;29;20338;-85
2023/08/30 08:08:44;;;;;;;;;;;;;;;;;;;;;
2023/08/30 08:11:20;;;;;;;2.05;0.52;;;;;;;18.91;100.00;93625.94;4927488;29;20038;-85
2023/08/30 08:13:58;;;;;;;1.33;0.43;;;;;;;19.38;100.00;93624.53;4938456;29;20047;-85
2023/08/30 08:16:23;;;;;;;4.18;0.30;;;;;;;18.79;100.00;93632.84;4924118;29;20046;-86
2023/08/30 08:18:59;;;;;;;;;;;;;;;;;;;;;
2023/08/30 08:21:38;;;;;;;;;;;;;;;;;;;;;
2023/08/30 08:24:13;;;;;;;3.97;0.40;;;;;;;19.52;100.00;93626.78;4953398;29;20433;-85
2023/08/30 08:26:46;;;;;;;1.23;0.40;;;;;;;19.80;100.00;93633.91;4925623;29;20083;-85
2023/08/30 08:29:16;;;;;;;0.77;0.30;;;;;;;19.73;100.00;93623.88;4942244;29;20033;-85
2023/08/30 08:31:42;;;;;;;1.48;0.35;;;;;;;19.58;100.00;93625.41;4958302;29;20089;-85
2023/08/30 08:34:38;;;;;;;3.00;0.40;;;;;;;18.65;100.00;93635.88;4925906;29;20421;-86
2023/08/30 08:37:16;;;;;;;;;;;;;;;;;;;;;
2023/08/30 08:39:45;;;;;;;0.82;0.30;;;;;;;18.59;100.00;93634.56;4944184;29;20032;-85
2023/08/30 08:45:21;;;;;;;1.38;0.50;;;;;;;19.21;100.00;93626.38;4914864;29;20046;-84
2023/08/30 08:47:56;;;;;;;0.20;0.20;;;;;;;19.06;100.00;93630.53;4907524;29;20030;-83
2023/08/30 08:50:29;;;;;;;2.55;0.30;;;;;;;20.39;100.00;93636.75;4921884;29;20035;-86
2023/08/30 08:53:08;;;;;;;;;;;;;;;;;;;;;
2023/08/30 08:55:36;;;;;;;1.23;0.45;;;;;;;20.95;100.00;93642.84;4942464;29;20027;-85
2023/08/30 08:58:02;;;;;;;5.07;1.13;;;;;;;20.55;100.00;93638.59;4925619;29;20058;-85
2023/08/30 09:00:32;;;;;;;0.52;0.35;;;;;;;20.06;100.00;93632.59;4925684;29;20059;-85
2023/08/30 09:03:00;;;;;;;0.57;0.30;;;;;;;20.32;100.00;93628.59;4925437;29;20445;-85
2023/08/30 09:05:29;;;;;;;1.05;0.55;;;;;;;19.95;100.00;93632.34;4940714;29;20507;-85
2023/08/30 09:07:54;;;;;;;1.13;0.63;;;;;;;20.68;100.00;93631.22;4932573;29;20441;-85
2023/08/30 09:10:21;;;;;;;1.00;0.55;;;;;;;21.08;100.00;93630.13;4958111;29;20075;-85
2023/08/30 09:12:47;;;;;;;0.47;0.20;;;;;;;20.80;100.00;93632.97;4939308;29;20057;-84
2023/08/30 09:15:13;;;;;;;0.73;0.30;;;;;;;21.04;100.00;93640.72;4955872;29;20035;-84
2023/08/30 09:17:39;;;;;;;0.60;0.20;;;;;;;20.35;100.00;93641.19;4925280;29;20053;-85
2023/08/30 09:20:12;;;;;;;1.95;0.20;;;;;;;;;;4941133;29;20035;-85
2023/08/30 09:22:38;;;;;;;0.57;0.23;;;;;;;20.58;92.39;93638.63;4943741;29;20027;-85
2023/08/30 09:25:05;;;;;;;0.57;0.20;;;;;;;21.07;100.00;93636.59;4956829;29;20023;-85
2023/08/30 09:27:33;;;;;;;1.08;0.20;;;;;;;20.84;100.00;93639.19;4937972;29;20070;-86
2023/08/30 09:29:58;;;;;;;1.38;0.25;;;;;;;20.99;98.22;93640.22;4939139;29;20441;-85
2023/08/30 09:32:24;;;;;;;0.40;0.30;;;;;;;20.75;90.43;93642.78;4921782;29;20028;-85
2023/08/30 09:34:49;;;;;;;2.00;0.28;;;;;;;20.45;100.00;93647.91;4931668;29;20074;-85
2023/08/30 09:37:22;;;;;;;0.30;0.20;;;;;;;20.34;100.00;93652.97;4940368;29;20114;-85
2023/08/30 09:39:51;;;;;;;0.50;0.30;;;;;;;20.19;100.00;93650.00;4936216;29;20027;-85
2023/08/30 09:42:17;;;;;;;0.82;0.10;;;;;;;20.61;100.00;93653.16;4940756;29;20299;-85
2023/08/30 09:44:43;;;;;;;0.28;0.20;;;;;;;20.59;100.00;93653.50;4925067;29;20349;-84
2023/08/30 09:47:08;;;;;;;0.45;0.20;;;;;;;19.71;100.00;93644.66;4940690;29;20039;-85
2023/08/30 09:49:42;;;;;;;1.33;0.13;;;;;;;20.29;100.00;93651.34;4957986;29;20040;-85
2023/08/30 09:52:08;;;;;;;1.65;0.40;;;;;;;20.11;100.00;93653.63;4929494;29;20031;-85
2023/08/30 09:54:34;;;;;;;0.38;0.17;;;;;;;20.56;95.83;93658.75;4957970;29;20027;-85
2023/08/30 09:57:00;;;;;;;2.20;0.38;;;;;;;20.77;91.30;93661.09;4940550;29;20058;-85
2023/08/30 09:59:26;;;;;;;0.80;0.30;;;;;;;21.74;89.18;93666.72;4957726;29;20035;-86
2023/08/30 10:01:52;;;;;;;3.40;0.50;;;;;;;22.13;90.13;93663.13;4940533;29;20354;-85
2023/08/30 10:04:19;;;;;;;0.43;0.20;;;;;;;22.21;76.73;93664.78;4941548;29;20034;-85
2023/08/30 10:06:45;;;;;;;0.17;0.17;;;;;;;22.30;86.25;93675.19;4961703;29;20034;-85
2023/08/30 10:09:10;;;;;;;0.20;0.20;;;;;;;21.47;91.22;93664.72;4928299;29;20023;-85
2023/08/30 10:11:37;;;;;;;0.90;0.20;;;;;;;22.40;88.32;93671.91;4944324;29;20031;-85
2023/08/30 10:14:07;;;;;;;3.13;0.30;;;;;;;22.10;86.61;93666.50;4943717;29;20130;-86
2023/08/30 10:16:42;;;;;;;7.47;0.47;;;;;;;20.71;100.00;93670.47;4928156;29;20065;-86
2023/08/30 10:19:10;;;;;;;1.20;0.30;;;;;;;21.99;82.31;93661.03;4943972;29;20041;-85
2023/08/30 10:21:37;;;;;;;0.25;0.20;;;;;;;22.35;88.06;93666.88;4944071;29;20039;-86
2023/08/30 10:24:04;;;;;;;1.02;0.40;;;;;;;23.06;78.16;93665.53;4927960;29;20345;-85
2023/08/30 10:26:30;;;;;;;0.60;0.30;;;;;;;23.63;73.44;93671.84;4943917;29;20031;-86
2023/08/30 10:28:56;;;;;;;0.95;0.30;;;;;;;22.08;75.76;93658.84;4943843;29;20043;-86
2023/08/30 10:31:22;;;;;;;1.65;0.40;;;;;;;22.53;86.02;93663.72;4927498;29;20075;-85
2023/08/30 10:33:54;;;;;;;4.72;0.80;;;;;;;23.06;76.42;93662.06;4943495;29;20062;-85
2023/08/30 10:36:23;;;;;;;1.92;0.20;;;;;;;23.21;90.52;93655.00;4943201;29;20170;-84
2023/08/30 10:38:55;;;;;;;0.20;0.20;;;;;;;22.50;74.90;93648.41;4943336;29;20030;-84
2023/08/30 10:41:23;;;;;;;1.17;0.40;;;;;;;22.82;76.47;93645.41;4942488;29;20062;-85
2023/08/30 10:43:55;;;;;;;0.70;0.30;;;;;;;22.11;90.11;93646.72;4960724;29;20114;-85
2023/08/30 10:46:34;;;;;;;0.43;0.20;;;;;;;23.58;74.71;93649.69;4943974;29;20513;-85
2023/08/30 10:49:15;;;;;;;0.88;0.30;;;;;;;21.31;81.92;93640.06;4960629;29;20077;-85
2023/08/30 10:51:41;;;;;;;1.42;0.43;;;;;;;23.47;69.65;93648.03;4943956;29;20035;-85
2023/08/30 10:54:13;;;;;;;1.23;0.30;;;;;;;23.63;65.39;93637.09;4952824;29;20496;-85
2023/08/30 10:56:51;;;;;;;0.40;0.30;;;;;;;23.12;71.44;93640.00;4927503;29;20062;-84
2023/08/30 10:59:21;;;;;;;1.15;0.30;;;;;;;23.35;72.71;93641.03;4960246;29;20027;-84
2023/08/30 11:01:53;;;;;;;0.45;0.20;;;;;;;23.30;69.64;93634.13;4943397;29;20393;-85
2023/08/30 11:04:20;;;;;;;0.50;0.25;;;;;;;21.79;86.13;93631.00;4943786;29;20039;-85
2023/08/30 11:06:47;;;;;;;0.63;0.20;;;;;;;23.41;79.41;93631.56;4943249;29;20062;-85
2023/08/30 11:09:14;;;;;;;2.42;0.30;;;;;;;21.67;100.00;93626.63;4927037;29;20046;-85
2023/08/30 11:11:40;;;;;;;2.38;0.28;;;;;;;22.42;100.00;93618.16;4943288;29;20352;-85
2023/08/30 11:14:09;;;;;;;0.60;0.50;;;;;;;21.61;100.00;93624.22;4943472;29;20031;-84
2023/08/30 11:16:35;;;;;;;1.15;0.30;;;;;;;22.56;94.88;93626.41;4959572;28;20031;-85
2023/08/30 11:19:03;;;;;;;0.22;0.20;;;;;;;23.21;82.14;93626.38;4942945;29;20039;-84
2023/08/30 11:21:29;;;;;;;1.83;0.40;;;;;;;23.49;81.96;93617.13;4943217;29;20042;-84
2023/08/30 11:23:54;;;;;;;0.65;0.30;;;;;;;23.81;83.08;93623.88;4959868;29;20031;-84
2023/08/30 11:26:20;;;;;;;0.38;0.30;;;;;;;24.29;72.56;93628.47;4928591;29;20038;-85
2023/08/30 11:28:48;;;;;;;1.40;0.30;;;;;;;24.16;71.98;93619.94;4908189;29;20039;-84
2023/08/30 11:31:27;;;;;;;0.45;0.20;;;;;;;23.98;82.68;93620.56;4941597;29;20082;-85
2023/08/30 11:33:56;;;;;;;0.15;0.13;;;;;;;23.27;72.08;93624.16;4924044;29;20066;-85
2023/08/30 11:36:26;;;;;;;0.30;0.20;;;;;;;24.49;68.58;93612.91;4923577;29;20032;-85
2023/08/30 11:38:51;;;;;;;2.03;0.30;;;;;;;22.73;75.88;93624.31;4925114;29;20039;-85
2023/08/30 11:41:17;;;;;;;2.53;0.30;;;;;;;23.62;73.82;93622.97;4923387;29;20047;-86
2023/08/30 11:43:43;;;;;;;0.50;0.17;;;;;;;23.82;67.21;93615.50;4923497;29;20032;-85
2023/08/30 11:46:09;;;;;;;1.05;0.30;;;;;;;22.77;88.89;93617.13;4923223;29;20035;-83
2023/08/30 11:48:35;;;;;;;0.75;0.45;;;;;;;23.76;83.58;93613.53;4939112;29;20035;-84
2023/08/30 11:51:00;;;;;;;1.05;0.30;;;;;;;23.60;83.36;93621.81;4938868;29;20031;-84
2023/08/30 11:53:26;;;;;;;1.55;0.32;;;;;;;23.67;78.25;93611.16;4940192;29;20122;-85
2023/08/30 11:55:53;;;;;;;1.55;0.47;;;;;;;23.80;77.32;93615.06;4940223;29;20039;-83
2023/08/30 11:58:18;;;;;;;0.50;0.35;;;;;;;23.82;76.73;93614.72;4938944;29;20040;-85
2023/08/30 12:00:44;;;;;;;0.52;0.20;;;;;;;24.55;67.48;93621.34;4939029;29;20091;-85